Time;durP1;ratioP1;P1;durP2;ratioP2;P2;SDS_P1;SDS_P2;PMS_P1;PMS_P2;Temp;Humidity;BMP_temperature;BMP_pressure;BME280_temperature;BME280_humidity;BME280_pressure;Samples;Min_cycle;Max_cycle;Signal;HPM_P1;HPM_P2
2023/08/13 11:33:43;;;;;;;3.35;1.17;;;;;;;;;;5963193;22;15087219;-90
2023/08/13 11:57:51;;;;;;;3.60;1.40;;;27.30;99.70;;;;;;6349743;22;20096;-91
2023/08/13 12:13:53;;;;;;;3.65;1.30;;;;;;;;;;6298919;22;20093;-87
2023/08/13 12:45:46;;;;;;;2.42;1.10;;;;;;;;;;6336274;22;20007;-86
2023/08/13 12:48:25;;;;;;;5.78;1.50;;;27.40;99.90;;;;;;6366949;22;20022;-89
2023/08/13 12:51:01;;;;;;;4.22;1.50;;;;;;;;;;6342469;22;20011;-89
2023/08/13 12:53:27;;;;;;;3.80;1.33;;;;;;;;;;6338103;22;20006;-88
2023/08/13 13:07:11;;;;;;;2.53;1.42;;;;;;;;;;6355829;22;20033;-83
2023/08/13 13:16:52;;;;;;;2.22;1.20;;;27.20;99.90;;;;;;6343966;22;20019;-87
2023/08/13 16:05:12;;;;;;;3.42;1.70;;;;;;;;;;6278804;22;20014;-84
2023/08/13 16:07:38;;;;;;;3.25;1.73;;;;;;;;;;6340951;22;20037;-89
2023/08/13 16:10:04;;;;;;;3.97;2.00;;;;;;;;;;6312582;22;20335;-86
2023/08/13 16:12:30;;;;;;;4.03;1.90;;;27.70;99.90;;;;;;6341291;22;20025;-85
2023/08/13 16:15:15;;;;;;;3.88;1.65;;;27.50;99.90;;;;;;6312522;22;20280;-84
2023/08/13 16:17:46;;;;;;;3.05;1.50;;;27.50;99.90;;;;;;6314575;22;20006;-87
2023/08/13 16:20:13;;;;;;;2.38;1.40;;;27.50;99.90;;;;;;6344322;22;20106;-84
2023/08/13 16:22:40;;;;;;;3.55;1.65;;;27.50;99.90;;;;;;6317229;22;20003;-90
2023/08/13 16:25:06;;;;;;;5.68;1.63;;;27.40;99.90;;;;;;6319312;22;20442;-85
2023/08/13 16:27:33;;;;;;;3.47;1.77;;;27.40;99.90;;;;;;6340873;22;20111;-87
2023/08/13 16:29:59;;;;;;;2.75;1.52;;;27.40;99.90;;;;;;6322631;22;20009;-88
2023/08/13 16:32:25;;;;;;;2.70;1.50;;;27.50;99.90;;;;;;6340655;22;19998;-84
2023/08/13 16:34:51;;;;;;;4.35;1.60;;;27.50;99.90;;;;;;6313845;22;20362;-89
2023/08/13 16:37:17;;;;;;;3.67;1.90;;;27.50;99.90;;;;;;6315188;22;20010;-87
2023/08/13 16:39:43;;;;;;;4.57;1.60;;;27.50;99.90;;;;;;6321133;22;20014;-86
2023/08/13 16:42:08;;;;;;;2.70;1.25;;;27.50;99.90;;;;;;6291758;22;20038;-83
2023/08/13 16:44:34;;;;;;;3.45;1.55;;;27.50;99.90;;;;;;6314378;22;20003;-86
2023/08/13 16:47:00;;;;;;;2.30;1.50;;;27.50;99.90;;;;;;6315051;22;20003;-84
2023/08/13 16:49:26;;;;;;;3.53;1.80;;;27.50;99.90;;;;;;6340424;22;19999;-84
2023/08/13 16:51:52;;;;;;;4.00;1.60;;;27.50;99.90;;;;;;6314351;22;20427;-87
2023/08/13 16:54:20;;;;;;;2.95;1.60;;;27.50;99.90;;;;;;6343553;22;20002;-84
2023/08/13 16:56:46;;;;;;;2.05;1.30;;;27.50;99.90;;;;;;6344493;22;20442;-84
2023/08/13 16:59:12;;;;;;;4.88;1.70;;;;;;;;;;6343407;22;20006;-82
2023/08/13 17:01:37;;;;;;;5.20;1.77;;;27.80;99.90;;;;;;6353352;22;20005;-85
2023/08/13 17:04:03;;;;;;;3.20;1.55;;;27.80;99.90;;;;;;6355823;22;20011;-84
2023/08/13 17:06:29;;;;;;;3.22;1.80;;;27.80;99.90;;;;;;6353102;22;20007;-86
2023/08/13 17:08:55;;;;;;;2.35;1.30;;;27.70;99.90;;;;;;6315515;22;20006;-86
2023/08/13 17:11:21;;;;;;;3.85;1.60;;;27.70;99.90;;;;;;6315362;22;19999;-86
2023/08/13 17:13:46;;;;;;;2.95;1.17;;;27.70;99.90;;;;;;6344630;22;20002;-87
2023/08/13 17:16:12;;;;;;;3.00;1.30;;;27.70;99.90;;;;;;6312114;22;20461;-87
2023/08/13 17:18:38;;;;;;;2.88;1.48;;;;;;;;;;6288283;22;20472;-86
2023/08/13 17:21:04;;;;;;;5.43;1.50;;;27.70;99.90;;;;;;6309799;22;19999;-87
2023/08/13 17:23:30;;;;;;;3.75;1.60;;;;;;;;;;6312056;22;20035;-86
2023/08/13 17:25:56;;;;;;;4.22;1.65;;;27.60;99.90;;;;;;6317437;22;20027;-84
2023/08/13 17:28:22;;;;;;;2.08;1.40;;;27.60;99.90;;;;;;6345411;22;20062;-84
2023/08/13 17:30:48;;;;;;;2.65;1.40;;;;;;;;;;6317121;22;20002;-84
2023/08/13 17:33:14;;;;;;;4.65;2.03;;;;;;;;;;6316950;22;20079;-86
2023/08/13 17:35:40;;;;;;;4.88;2.10;;;;;;;;;;6349308;22;20022;-83
2023/08/13 17:38:06;;;;;;;4.05;1.92;;;;;;;;;;6330350;22;20078;-87
2023/08/13 17:40:32;;;;;;;3.45;2.08;;;;;;;;;;6362404;22;19990;-88
2023/08/13 17:42:57;;;;;;;6.20;1.90;;;27.80;99.90;;;;;;6353189;22;20081;-82
2023/08/13 17:45:23;;;;;;;4.70;1.92;;;27.80;99.90;;;;;;6345403;22;20423;-83
2023/08/13 17:47:49;;;;;;;4.35;1.90;;;;;;;;;;6320780;22;19995;-86
2023/08/13 17:50:15;;;;;;;3.33;1.80;;;;;;;;;;6316946;22;20007;-82
2023/08/13 17:52:41;;;;;;;6.43;1.95;;;27.20;99.90;;;;;;6318685;22;20060;-84
2023/08/13 17:55:07;;;;;;;5.38;2.15;;;26.80;99.90;;;;;;6345070;22;19995;-83
2023/08/13 17:57:33;;;;;;;3.35;2.30;;;26.60;99.90;;;;;;6290453;22;20380;-84
2023/08/13 17:59:59;;;;;;;3.58;2.10;;;26.60;99.90;;;;;;6285258;22;20009;-84
2023/08/13 18:02:25;;;;;;;3.05;1.83;;;;;;;;;;6313451;22;20024;-82
2023/08/13 18:04:51;;;;;;;4.55;1.70;;;;;;;;;;6342319;22;20402;-82
2023/08/13 18:07:17;;;;;;;5.30;2.13;;;;;;;;;;6338624;22;19999;-81
2023/08/13 18:09:43;;;;;;;5.15;2.83;;;24.00;99.90;;;;;;6314714;22;20116;-83
2023/08/13 18:12:09;;;;;;;5.15;2.50;;;;;;;;;;6315346;22;20311;-83
2023/08/13 18:14:36;;;;;;;3.40;2.00;;;;;;;;;;6314567;22;20028;-84
2023/08/13 18:17:02;;;;;;;4.35;1.95;;;;;;;;;;6340206;22;20025;-86
2023/08/13 18:19:28;;;;;;;4.55;2.42;;;;;;;;;;6312316;22;20007;-84
2023/08/13 18:21:54;;;;;;;4.47;2.30;;;;;;;;;;6340801;22;20327;-83
2023/08/13 18:24:22;;;;;;;5.32;1.80;;;25.30;99.90;;;;;;6311357;22;20490;-83
2023/08/13 18:26:48;;;;;;;4.03;2.28;;;;;;;;;;6285852;22;20100;-85
2023/08/13 18:29:14;;;;;;;4.93;2.97;;;;;;;;;;6339384;22;20006;-84
2023/08/13 18:31:40;;;;;;;6.22;2.75;;;;;;;;;;6337621;22;20002;-82
2023/08/13 18:34:06;;;;;;;3.83;2.10;;;;;;;;;;6313983;22;19998;-84
2023/08/13 18:36:32;;;;;;;4.40;2.20;;;;;;;;;;6313544;22;20476;-82
2023/08/13 18:38:58;;;;;;;3.63;2.10;;;;;;;;;;6320269;22;20026;-82
2023/08/13 18:41:24;;;;;;;4.78;2.53;;;;;;;;;;6321300;22;20102;-83
2023/08/13 18:43:51;;;;;;;4.18;2.58;;;;;;;;;;6317606;22;20082;-83
2023/08/13 18:46:18;;;;;;;5.35;3.13;;;;;;;;;;6340226;22;20006;-83
2023/08/13 18:48:44;;;;;;;5.63;3.15;;;;;;;;;;6338788;22;20015;-85
2023/08/13 18:51:11;;;;;;;4.40;2.60;;;25.20;99.90;;;;;;6338438;22;20002;-84
2023/08/13 18:53:37;;;;;;;4.70;2.70;;;;;;;;;;6310853;22;20013;-85
2023/08/13 18:56:04;;;;;;;6.10;3.47;;;25.10;99.90;;;;;;6312256;22;20015;-84
2023/08/13 18:58:30;;;;;;;3.60;2.42;;;25.10;99.90;;;;;;6318725;22;20003;-84
2023/08/13 19:00:56;;;;;;;5.90;3.08;;;25.00;99.90;;;;;;6355350;22;20001;-84
2023/08/13 19:03:22;;;;;;;5.45;2.67;;;;;;;;;;6325621;22;20067;-84
2023/08/13 19:05:48;;;;;;;5.15;3.45;;;;;;;;;;6326224;22;20018;-84
2023/08/13 19:08:14;;;;;;;5.18;2.67;;;;;;;;;;6356528;22;19986;-84
2023/08/13 19:10:46;;;;;;;7.50;2.33;;;24.80;99.90;;;;;;6328001;22;20010;-83
2023/08/13 19:13:13;;;;;;;6.97;2.63;;;24.70;99.90;;;;;;6356174;22;20011;-84
2023/08/13 19:15:40;;;;;;;6.60;2.50;;;;;;;;;;6329023;22;20003;-85
2023/08/13 19:18:06;;;;;;;4.45;2.65;;;;;;;;;;6327457;22;20275;-82
2023/08/13 19:20:32;;;;;;;4.85;2.03;;;;;;;;;;6332218;22;20009;-87
2023/08/13 19:22:58;;;;;;;4.03;2.05;;;;;;;;;;6332512;22;20007;-84
2023/08/13 19:25:24;;;;;;;6.05;2.55;;;;;;;;;;6333724;22;20001;-84
2023/08/13 19:27:51;;;;;;;6.53;2.63;;;;;;;;;;6335113;22;20033;-85
2023/08/13 19:30:17;;;;;;;4.82;2.22;;;;;;;;;;6334319;22;20002;-87
2023/08/13 19:32:44;;;;;;;6.70;3.85;;;24.40;99.90;;;;;;6360886;22;20009;-84
2023/08/13 19:35:10;;;;;;;4.80;3.00;;;;;;;;;;6361991;22;19995;-89
2023/08/13 19:37:35;;;;;;;7.18;3.13;;;24.30;99.90;;;;;;6360860;22;20009;-85
2023/08/13 19:40:03;;;;;;;5.30;2.10;;;24.30;99.90;;;;;;6334182;22;20006;-88
2023/08/13 19:42:32;;;;;;;5.72;2.40;;;;;;;;;;6334846;22;19998;-88
2023/08/13 19:44:58;;;;;;;4.20;2.08;;;;;;;;;;6364391;22;20013;-83
2023/08/13 19:47:24;;;;;;;5.72;2.53;;;;;;;;;;6363403;22;20009;-85
2023/08/13 19:49:50;;;;;;;5.38;2.35;;;;;;;;;;6361010;22;20316;-86
2023/08/13 19:52:16;;;;;;;6.78;2.28;;;;;;;;;;6338647;22;20002;-89
2023/08/13 19:54:43;;;;;;;5.32;2.15;;;;;;;;;;6339205;22;20036;-89
2023/08/13 19:57:09;;;;;;;3.50;2.13;;;;;;;;;;6335589;22;20039;-86
2023/08/13 19:59:35;;;;;;;4.07;2.40;;;;;;;;;;6337574;22;20032;-89
2023/08/13 20:02:01;;;;;;;7.28;2.58;;;;;;;;;;6328041;22;19995;-83
2023/08/13 20:04:26;;;;;;;5.25;2.50;;;23.60;99.90;;;;;;6351973;22;20431;-83
2023/08/13 20:06:52;;;;;;;5.57;2.63;;;;;;;;;;6307365;22;20038;-90
2023/08/13 20:09:19;;;;;;;4.72;2.50;;;;;;;;;;6336232;22;20033;-86
2023/08/13 20:11:45;;;;;;;6.32;2.30;;;;;;;;;;6361666;22;19998;-86
2023/08/13 20:14:11;;;;;;;5.07;2.53;;;;;;;;;;6331045;22;20010;-84
2023/08/13 20:16:37;;;;;;;6.20;2.90;;;;;;;;;;6331428;22;20022;-84
2023/08/13 20:19:05;;;;;;;6.65;3.20;;;;;;;;;;6355838;22;20074;-85
2023/08/13 20:21:47;;;;;;;6.65;3.78;;;23.40;99.90;;;;;;6323007;22;19999;-84
2023/08/13 20:24:17;;;;;;;7.63;3.00;;;23.30;99.90;;;;;;6323464;22;20041;-83
2023/08/13 20:26:43;;;;;;;5.35;2.78;;;;;;;;;;6318088;22;20018;-85
2023/08/13 20:29:10;;;;;;;6.53;4.00;;;23.20;99.90;;;;;;6345040;22;20041;-84
2023/08/13 20:31:36;;;;;;;5.57;2.58;;;;;;;;;;6350168;22;19998;-87
2023/08/13 20:34:02;;;;;;;8.52;3.28;;;;;;;;;;6329048;22;20007;-85
2023/08/13 20:36:29;;;;;;;6.20;3.03;;;;;;;;;;6329503;22;20030;-85
2023/08/13 20:38:55;;;;;;;6.82;2.90;;;;;;;;;;6327917;22;20525;-81
2023/08/13 20:41:21;;;;;;;5.90;2.95;;;;;;;;;;6324071;22;20007;-82
2023/08/13 20:43:47;;;;;;;5.30;2.50;;;;;;;;;;6320208;22;20017;-83
2023/08/13 20:46:13;;;;;;;4.28;2.30;;;;;;;;;;6319707;22;20593;-84
2023/08/13 20:48:39;;;;;;;7.90;3.38;;;;;;;;;;6351901;22;20026;-85
2023/08/13 20:51:06;;;;;;;6.97;2.63;;;;;;;;;;6355964;22;20030;-83
2023/08/13 20:53:32;;;;;;;6.50;2.58;;;;;;;;;;6356242;22;20004;-84
2023/08/13 20:55:59;;;;;;;6.40;2.58;;;22.70;99.90;;;;;;6362765;22;20003;-84
2023/08/13 20:58:25;;;;;;;8.13;2.53;;;22.60;99.90;;;;;;6331071;22;19999;-83
2023/08/13 21:00:51;;;;;;;6.85;2.55;;;;;;;;;;6356770;22;19995;-84
2023/08/13 21:03:17;;;;;;;5.60;2.35;;;;;;;;;;6346137;22;20007;-84
2023/08/13 21:05:44;;;;;;;5.85;2.38;;;;;;;;;;6319346;22;20398;-84
2023/08/13 21:08:10;;;;;;;5.55;2.42;;;;;;;;;;6362330;22;20042;-89
2023/08/13 21:10:36;;;;;;;7.22;2.95;;;;;;;;;;6330488;22;20074;-87
2023/08/13 21:13:02;;;;;;;7.97;2.88;;;;;;;;;;6336171;22;20015;-85
2023/08/13 21:15:28;;;;;;;6.65;2.83;;;;;;;;;;6364281;22;20058;-84
2023/08/13 21:17:54;;;;;;;8.68;2.90;;;;;;;;;;6364709;22;20009;-89
2023/08/13 21:20:20;;;;;;;7.40;3.35;;;;;;;;;;6336316;22;19999;-83
2023/08/13 21:22:46;;;;;;;8.40;3.15;;;;;;;;;;6364048;22;19995;-87
2023/08/13 21:25:12;;;;;;;8.32;2.28;;;;;;;;;;6334654;22;20018;-86
2023/08/13 21:27:38;;;;;;;6.60;2.47;;;;;;;;;;6336548;22;20013;-88
2023/08/13 21:30:14;;;;;;;6.43;2.35;;;22.50;99.90;;;;;;6331385;22;19994;-85
2023/08/13 21:32:40;;;;;;;7.18;2.80;;;;;;;;;;6333529;22;20047;-88
2023/08/13 21:35:06;;;;;;;5.82;2.35;;;22.40;99.90;;;;;;6334299;22;20009;-84
2023/08/13 21:37:33;;;;;;;8.20;2.63;;;22.30;99.90;;;;;;6363942;22;19995;-83
2023/08/13 21:39:59;;;;;;;5.22;2.20;;;;;;;;;;6335558;22;20071;-81
2023/08/13 21:42:25;;;;;;;5.00;2.25;;;;;;;;;;6365469;22;20030;-81
2023/08/13 21:44:51;;;;;;;7.30;2.45;;;;;;;;;;6357388;22;19999;-81
2023/08/13 21:47:20;;;;;;;7.93;2.53;;;22.00;99.90;;;;;;6361391;22;19995;-80
2023/08/13 21:49:48;;;;;;;6.83;3.00;;;21.90;99.90;;;;;;6332316;22;19995;-80
2023/08/13 21:52:16;;;;;;;8.00;2.80;;;;;;;;;;6305265;22;20237;-81
2023/08/13 21:54:42;;;;;;;8.85;2.80;;;21.80;99.90;;;;;;6328873;22;20002;-82
2023/08/13 21:57:08;;;;;;;6.55;2.92;;;;;;;;;;6321769;22;20484;-80
2023/08/13 21:59:34;;;;;;;8.07;2.88;;;;;;;;;;6317498;22;20002;-83
2023/08/13 22:02:00;;;;;;;10.90;2.70;;;;;;;;;;6316408;22;20014;-83
2023/08/13 22:04:26;;;;;;;7.78;2.92;;;;;;;;;;6316117;22;19998;-82
2023/08/13 22:12:04;;;;;;;8.43;2.70;;;;;;;;;;6359550;22;20026;-86
2023/08/13 22:14:30;;;;;;;9.60;2.63;;;;;;;;;;6308110;22;19987;-87
2023/08/13 22:16:57;;;;;;;8.48;3.50;;;;;;;;;;6307301;22;19992;-85
2023/08/13 22:19:26;;;;;;;6.30;2.78;;;;;;;;;;6333914;22;19991;-85
2023/08/13 22:24:31;;;;;;;7.43;2.60;;;;;;;;;;6335081;22;20329;-85
2023/08/13 22:34:52;;;;;;;9.63;2.60;;;;;;;;;;6361802;22;20068;-86
2023/08/13 22:37:18;;;;;;;7.13;2.30;;;;;;;;;;6366691;22;19987;-85
2023/08/13 23:00:55;;;;;;;9.07;2.72;;;;;;;;;;6305439;22;20062;-84
